sensor_id;sensor_type;location;lat;lon;timestamp;temperature;humidity
7784;DHT22;19359;51.402;6.778;2023-04-06T00:02:17;1.90;34.00
7784;DHT22;19359;51.402;6.778;2023-04-06T00:04:44;1.90;35.80
7784;DHT22;19359;51.402;6.778;2023-04-06T00:07:11;1.70;37.40
7784;DHT22;19359;51.402;6.778;2023-04-06T00:09:37;1.80;38.20
7784;DHT22;19359;51.402;6.778;2023-04-06T00:12:04;1.80;39.40
7784;DHT22;19359;51.402;6.778;2023-04-06T00:14:31;1.70;41.10
7784;DHT22;19359;51.402;6.778;2023-04-06T00:16:59;1.70;41.60
7784;DHT22;19359;51.402;6.778;2023-04-06T00:19:26;1.80;41.20
7784;DHT22;19359;51.402;6.778;2023-04-06T00:21:53;1.80;33.90
7784;DHT22;19359;51.402;6.778;2023-04-06T00:24:20;1.80;41.00
7784;DHT22;19359;51.402;6.778;2023-04-06T00:26:47;1.70;41.30
7784;DHT22;19359;51.402;6.778;2023-04-06T00:29:13;1.80;39.00
7784;DHT22;19359;51.402;6.778;2023-04-06T00:31:40;1.30;39.70
7784;DHT22;19359;51.402;6.778;2023-04-06T00:34:09;1.60;40.50
7784;DHT22;19359;51.402;6.778;2023-04-06T00:36:36;1.60;40.60
7784;DHT22;19359;51.402;6.778;2023-04-06T00:41:30;1.30;40.70
7784;DHT22;19359;51.402;6.778;2023-04-06T00:43:57;1.60;41.40
7784;DHT22;19359;51.402;6.778;2023-04-06T00:46:24;1.30;41.20
7784;DHT22;19359;51.402;6.778;2023-04-06T00:48:50;1.60;40.70
7784;DHT22;19359;51.402;6.778;2023-04-06T00:51:19;1.40;40.60
7784;DHT22;19359;51.402;6.778;2023-04-06T00:53:45;1.00;41.90
7784;DHT22;19359;51.402;6.778;2023-04-06T00:56:12;1.80;44.30
7784;DHT22;19359;51.402;6.778;2023-04-06T00:58:39;1.30;45.00
7784;DHT22;19359;51.402;6.778;2023-04-06T01:01:06;2.00;47.40
7784;DHT22;19359;51.402;6.778;2023-04-06T01:03:32;1.40;49.00
7784;DHT22;19359;51.402;6.778;2023-04-06T01:05:59;1.20;50.60
7784;DHT22;19359;51.402;6.778;2023-04-06T01:08:27;1.20;51.40
7784;DHT22;19359;51.402;6.778;2023-04-06T01:10:54;1.20;51.80
7784;DHT22;19359;51.402;6.778;2023-04-06T01:13:21;1.20;53.10
7784;DHT22;19359;51.402;6.778;2023-04-06T01:15:48;1.20;52.90
7784;DHT22;19359;51.402;6.778;2023-04-06T01:18:15;1.20;53.70
7784;DHT22;19359;51.402;6.778;2023-04-06T01:20:42;0.70;55.00
7784;DHT22;19359;51.402;6.778;2023-04-06T01:23:10;1.10;30.90
7784;DHT22;19359;51.402;6.778;2023-04-06T01:25:38;1.10;57.10
7784;DHT22;19359;51.402;6.778;2023-04-06T01:32:59;1.00;59.40
7784;DHT22;19359;51.402;6.778;2023-04-06T01:35:26;1.00;59.50
7784;DHT22;19359;51.402;6.778;2023-04-06T01:40:21;1.00;35.80
7784;DHT22;19359;51.402;6.778;2023-04-06T01:42:48;1.10;61.80
7784;DHT22;19359;51.402;6.778;2023-04-06T01:47:41;1.00;65.00
7784;DHT22;19359;51.402;6.778;2023-04-06T01:50:09;1.10;66.00
7784;DHT22;19359;51.402;6.778;2023-04-06T01:52:36;1.00;66.70
7784;DHT22;19359;51.402;6.778;2023-04-06T01:55:03;0.90;66.00
7784;DHT22;19359;51.402;6.778;2023-04-06T01:57:32;0.90;64.80
7784;DHT22;19359;51.402;6.778;2023-04-06T01:59:58;1.00;66.40
7784;DHT22;19359;51.402;6.778;2023-04-06T02:02:25;0.80;67.50
7784;DHT22;19359;51.402;6.778;2023-04-06T02:04:52;0.90;68.60
7784;DHT22;19359;51.402;6.778;2023-04-06T02:09:46;0.90;70.70
7784;DHT22;19359;51.402;6.778;2023-04-06T02:12:12;0.90;71.30
7784;DHT22;19359;51.402;6.778;2023-04-06T02:14:40;0.90;71.30
7784;DHT22;19359;51.402;6.778;2023-04-06T02:17:07;0.80;70.30
7784;DHT22;19359;51.402;6.778;2023-04-06T02:22:01;0.80;71.30
7784;DHT22;19359;51.402;6.778;2023-04-06T02:24:28;0.70;70.00
7784;DHT22;19359;51.402;6.778;2023-04-06T02:26:55;0.70;71.30
7784;DHT22;19359;51.402;6.778;2023-04-06T02:29:21;0.70;72.00
7784;DHT22;19359;51.402;6.778;2023-04-06T02:31:49;0.70;72.90
7784;DHT22;19359;51.402;6.778;2023-04-06T02:34:16;0.90;73.40
7784;DHT22;19359;51.402;6.778;2023-04-06T02:36:44;0.70;73.80
7784;DHT22;19359;51.402;6.778;2023-04-06T02:39:11;0.70;73.30
7784;DHT22;19359;51.402;6.778;2023-04-06T02:41:38;0.60;71.60
7784;DHT22;19359;51.402;6.778;2023-04-06T02:44:07;0.60;71.50
7784;DHT22;19359;51.402;6.778;2023-04-06T02:49:02;0.60;71.80
7784;DHT22;19359;51.402;6.778;2023-04-06T02:51:29;0.60;70.10
7784;DHT22;19359;51.402;6.778;2023-04-06T02:53:56;0.60;70.00
7784;DHT22;19359;51.402;6.778;2023-04-06T02:56:22;0.70;70.50
7784;DHT22;19359;51.402;6.778;2023-04-06T02:58:50;0.70;68.80
7784;DHT22;19359;51.402;6.778;2023-04-06T03:01:17;0.60;68.50
7784;DHT22;19359;51.402;6.778;2023-04-06T03:03:44;0.50;67.40
7784;DHT22;19359;51.402;6.778;2023-04-06T03:06:12;0.50;67.60
7784;DHT22;19359;51.402;6.778;2023-04-06T03:08:39;1.10;69.00
7784;DHT22;19359;51.402;6.778;2023-04-06T03:11:05;1.00;67.00
7784;DHT22;19359;51.402;6.778;2023-04-06T03:13:32;1.00;65.60
7784;DHT22;19359;51.402;6.778;2023-04-06T03:15:59;0.60;65.70
7784;DHT22;19359;51.402;6.778;2023-04-06T03:18:25;0.60;65.60
7784;DHT22;19359;51.402;6.778;2023-04-06T03:20:52;0.50;65.80
7784;DHT22;19359;51.402;6.778;2023-04-06T03:23:21;0.40;65.40
7784;DHT22;19359;51.402;6.778;2023-04-06T03:25:48;0.40;65.50
7784;DHT22;19359;51.402;6.778;2023-04-06T03:30:42;0.40;67.00
7784;DHT22;19359;51.402;6.778;2023-04-06T03:33:09;0.50;66.60
7784;DHT22;19359;51.402;6.778;2023-04-06T03:38:03;0.30;67.70
7784;DHT22;19359;51.402;6.778;2023-04-06T03:40:31;0.30;67.60
7784;DHT22;19359;51.402;6.778;2023-04-06T03:42:58;0.20;66.50
7784;DHT22;19359;51.402;6.778;2023-04-06T03:47:52;0.30;68.10
7784;DHT22;19359;51.402;6.778;2023-04-06T03:50:19;-0.10;68.70
7784;DHT22;19359;51.402;6.778;2023-04-06T03:52:45;0.30;67.70
7784;DHT22;19359;51.402;6.778;2023-04-06T03:57:41;0.30;69.10
7784;DHT22;19359;51.402;6.778;2023-04-06T04:00:09;0.30;69.80
7784;DHT22;19359;51.402;6.778;2023-04-06T04:02:35;0.30;68.50
7784;DHT22;19359;51.402;6.778;2023-04-06T04:05:03;1.00;69.90
7784;DHT22;19359;51.402;6.778;2023-04-06T04:07:30;0.30;69.10
7784;DHT22;19359;51.402;6.778;2023-04-06T04:09:56;0.30;68.30
7784;DHT22;19359;51.402;6.778;2023-04-06T04:12:23;0.20;68.50
7784;DHT22;19359;51.402;6.778;2023-04-06T04:14:51;0.20;69.00
7784;DHT22;19359;51.402;6.778;2023-04-06T04:17:18;0.30;69.90
7784;DHT22;19359;51.402;6.778;2023-04-06T04:24:39;0.60;70.10
7784;DHT22;19359;51.402;6.778;2023-04-06T04:27:06;0.20;69.70
7784;DHT22;19359;51.402;6.778;2023-04-06T04:29:33;0.20;69.60
7784;DHT22;19359;51.402;6.778;2023-04-06T04:32:01;0.20;69.50
7784;DHT22;19359;51.402;6.778;2023-04-06T04:34:28;-0.30;70.90
7784;DHT22;19359;51.402;6.778;2023-04-06T04:36:55;0.20;72.70
7784;DHT22;19359;51.402;6.778;2023-04-06T04:39:21;0.20;74.00
7784;DHT22;19359;51.402;6.778;2023-04-06T04:41:48;0.10;75.20
7784;DHT22;19359;51.402;6.778;2023-04-06T04:44:15;0.20;75.50
7784;DHT22;19359;51.402;6.778;2023-04-06T04:46:42;0.10;77.00
7784;DHT22;19359;51.402;6.778;2023-04-06T04:49:10;0.20;77.20
7784;DHT22;19359;51.402;6.778;2023-04-06T04:51:36;0.20;77.60
7784;DHT22;19359;51.402;6.778;2023-04-06T04:54:03;0.30;77.90
7784;DHT22;19359;51.402;6.778;2023-04-06T04:56:30;0.10;77.40
7784;DHT22;19359;51.402;6.778;2023-04-06T04:58:57;0.10;76.40
7784;DHT22;19359;51.402;6.778;2023-04-06T05:01:23;0.70;77.10
7784;DHT22;19359;51.402;6.778;2023-04-06T05:03:50;0.10;77.10
7784;DHT22;19359;51.402;6.778;2023-04-06T05:06:18;0.10;78.10
7784;DHT22;19359;51.402;6.778;2023-04-06T05:11:12;0.10;79.00
7784;DHT22;19359;51.402;6.778;2023-04-06T05:13:39;0.20;79.10
7784;DHT22;19359;51.402;6.778;2023-04-06T05:16:06;0.30;79.70
7784;DHT22;19359;51.402;6.778;2023-04-06T05:18:33;0.20;80.60
7784;DHT22;19359;51.402;6.778;2023-04-06T05:20:59;0.20;80.70
7784;DHT22;19359;51.402;6.778;2023-04-06T05:23:27;0.40;80.40
7784;DHT22;19359;51.402;6.778;2023-04-06T05:25:54;0.40;81.10
7784;DHT22;19359;51.402;6.778;2023-04-06T05:28:21;0.50;81.10
7784;DHT22;19359;51.402;6.778;2023-04-06T05:30:48;0.50;80.10
7784;DHT22;19359;51.402;6.778;2023-04-06T05:33:15;0.40;80.40
7784;DHT22;19359;51.402;6.778;2023-04-06T05:35:42;0.50;79.20
7784;DHT22;19359;51.402;6.778;2023-04-06T05:38:08;0.50;79.00
7784;DHT22;19359;51.402;6.778;2023-04-06T05:40:37;0.60;79.50
7784;DHT22;19359;51.402;6.778;2023-04-06T05:43:06;0.70;64.00
7784;DHT22;19359;51.402;6.778;2023-04-06T05:45:33;0.80;78.10
7784;DHT22;19359;51.402;6.778;2023-04-06T05:48:00;0.70;77.20
7784;DHT22;19359;51.402;6.778;2023-04-06T05:50:27;0.90;77.00
7784;DHT22;19359;51.402;6.778;2023-04-06T05:52:54;0.90;75.30
7784;DHT22;19359;51.402;6.778;2023-04-06T05:55:20;0.80;73.90
7784;DHT22;19359;51.402;6.778;2023-04-06T05:57:48;1.00;74.70
7784;DHT22;19359;51.402;6.778;2023-04-06T06:00:15;1.00;74.40
7784;DHT22;19359;51.402;6.778;2023-04-06T06:02:42;1.10;73.20
7784;DHT22;19359;51.402;6.778;2023-04-06T06:05:09;1.10;72.80
7784;DHT22;19359;51.402;6.778;2023-04-06T06:07:36;1.20;64.20
7784;DHT22;19359;51.402;6.778;2023-04-06T06:10:03;1.40;66.50
7784;DHT22;19359;51.402;6.778;2023-04-06T06:14:58;1.70;63.00
7784;DHT22;19359;51.402;6.778;2023-04-06T06:17:26;1.90;34.30
7784;DHT22;19359;51.402;6.778;2023-04-06T06:22:19;2.40;28.60
7784;DHT22;19359;51.402;6.778;2023-04-06T06:24:46;2.60;24.20
7784;DHT22;19359;51.402;6.778;2023-04-06T06:27:13;2.90;15.70
7784;DHT22;19359;51.402;6.778;2023-04-06T06:29:40;3.10;16.30
7784;DHT22;19359;51.402;6.778;2023-04-06T06:32:08;3.20;8.50
7784;DHT22;19359;51.402;6.778;2023-04-06T06:34:35;3.60;1.00
7784;DHT22;19359;51.402;6.778;2023-04-06T06:37:02;3.60;1.00
7784;DHT22;19359;51.402;6.778;2023-04-06T06:39:28;3.80;1.00
7784;DHT22;19359;51.402;6.778;2023-04-06T06:41:55;4.00;1.00
7784;DHT22;19359;51.402;6.778;2023-04-06T06:44:22;4.20;1.00
7784;DHT22;19359;51.402;6.778;2023-04-06T06:46:49;4.20;1.00
7784;DHT22;19359;51.402;6.778;2023-04-06T06:49:17;4.50;1.00
7784;DHT22;19359;51.402;6.778;2023-04-06T06:51:44;4.60;1.00
7784;DHT22;19359;51.402;6.778;2023-04-06T06:54:12;4.80;1.00
7784;DHT22;19359;51.402;6.778;2023-04-06T06:56:38;4.70;1.00
7784;DHT22;19359;51.402;6.778;2023-04-06T07:01:33;5.20;1.00
7784;DHT22;19359;51.402;6.778;2023-04-06T07:03:59;5.20;1.00
7784;DHT22;19359;51.402;6.778;2023-04-06T07:06:28;5.40;1.00
7784;DHT22;19359;51.402;6.778;2023-04-06T07:11:21;5.70;1.00
7784;DHT22;19359;51.402;6.778;2023-04-06T07:13:48;5.80;1.00
7784;DHT22;19359;51.402;6.778;2023-04-06T07:16:15;6.00;1.00
7784;DHT22;19359;51.402;6.778;2023-04-06T07:18:42;6.00;1.00
7784;DHT22;19359;51.402;6.778;2023-04-06T07:21:08;6.50;1.00
7784;DHT22;19359;51.402;6.778;2023-04-06T07:23:37;6.30;1.00
7784;DHT22;19359;51.402;6.778;2023-04-06T07:26:03;6.40;1.00
7784;DHT22;19359;51.402;6.778;2023-04-06T07:28:30;6.50;1.00
7784;DHT22;19359;51.402;6.778;2023-04-06T07:30:57;6.90;1.00
7784;DHT22;19359;51.402;6.778;2023-04-06T07:33:24;7.00;1.00
7784;DHT22;19359;51.402;6.778;2023-04-06T07:35:55;7.10;1.00
7784;DHT22;19359;51.402;6.778;2023-04-06T07:38:22;7.00;1.00
7784;DHT22;19359;51.402;6.778;2023-04-06T07:40:50;7.30;1.00
7784;DHT22;19359;51.402;6.778;2023-04-06T07:43:17;7.00;1.00
7784;DHT22;19359;51.402;6.778;2023-04-06T07:45:44;7.40;1.00
7784;DHT22;19359;51.402;6.778;2023-04-06T07:50:38;7.30;1.00
7784;DHT22;19359;51.402;6.778;2023-04-06T07:55:32;7.70;1.00
7784;DHT22;19359;51.402;6.778;2023-04-06T07:58:00;7.80;1.00
7784;DHT22;19359;51.402;6.778;2023-04-06T08:00:26;8.60;1.00
7784;DHT22;19359;51.402;6.778;2023-04-06T08:02:53;8.10;1.00
7784;DHT22;19359;51.402;6.778;2023-04-06T08:05:20;8.30;1.00
7784;DHT22;19359;51.402;6.778;2023-04-06T08:07:47;8.50;1.00
7784;DHT22;19359;51.402;6.778;2023-04-06T08:12:40;8.60;1.00
7784;DHT22;19359;51.402;6.778;2023-04-06T08:15:09;8.60;1.00
7784;DHT22;19359;51.402;6.778;2023-04-06T08:17:36;8.80;1.00
7784;DHT22;19359;51.402;6.778;2023-04-06T08:20:03;9.00;1.00
7784;DHT22;19359;51.402;6.778;2023-04-06T08:22:30;9.00;1.00
7784;DHT22;19359;51.402;6.778;2023-04-06T08:24:57;9.30;1.00
7784;DHT22;19359;51.402;6.778;2023-04-06T08:27:24;10.20;1.00
7784;DHT22;19359;51.402;6.778;2023-04-06T08:29:50;9.50;1.00
7784;DHT22;19359;51.402;6.778;2023-04-06T08:39:40;9.90;1.00
7784;DHT22;19359;51.402;6.778;2023-04-06T08:42:12;10.10;1.00
7784;DHT22;19359;51.402;6.778;2023-04-06T08:44:43;10.20;1.00
7784;DHT22;19359;51.402;6.778;2023-04-06T08:47:11;10.30;1.00
7784;DHT22;19359;51.402;6.778;2023-04-06T08:49:39;10.50;1.00
7784;DHT22;19359;51.402;6.778;2023-04-06T08:52:07;10.50;1.00
7784;DHT22;19359;51.402;6.778;2023-04-06T08:54:34;10.60;1.00
7784;DHT22;19359;51.402;6.778;2023-04-06T08:57:01;10.80;1.00
7784;DHT22;19359;51.402;6.778;2023-04-06T08:59:29;10.70;1.00
7784;DHT22;19359;51.402;6.778;2023-04-06T09:01:56;11.30;1.00
7784;DHT22;19359;51.402;6.778;2023-04-06T09:04:23;11.00;1.00
7784;DHT22;19359;51.402;6.778;2023-04-06T09:06:51;10.90;1.00
7784;DHT22;19359;51.402;6.778;2023-04-06T09:09:18;11.00;1.00
7784;DHT22;19359;51.402;6.778;2023-04-06T09:11:46;11.00;1.00
7784;DHT22;19359;51.402;6.778;2023-04-06T09:14:14;11.30;1.00
7784;DHT22;19359;51.402;6.778;2023-04-06T09:16:43;11.40;1.00
7784;DHT22;19359;51.402;6.778;2023-04-06T09:19:11;11.50;1.00
7784;DHT22;19359;51.402;6.778;2023-04-06T09:21:38;11.20;1.00
7784;DHT22;19359;51.402;6.778;2023-04-06T09:24:08;11.40;1.00
7784;DHT22;19359;51.402;6.778;2023-04-06T09:26:44;11.40;1.00
7784;DHT22;19359;51.402;6.778;2023-04-06T09:29:22;11.50;1.00
7784;DHT22;19359;51.402;6.778;2023-04-06T09:31:48;11.50;1.00
7784;DHT22;19359;51.402;6.778;2023-04-06T09:34:21;11.50;1.00
7784;DHT22;19359;51.402;6.778;2023-04-06T09:36:48;11.10;1.00
7784;DHT22;19359;51.402;6.778;2023-04-06T09:39:20;11.80;1.00
7784;DHT22;19359;51.402;6.778;2023-04-06T09:41:50;11.70;1.00
7784;DHT22;19359;51.402;6.778;2023-04-06T09:44:18;11.70;1.00
7784;DHT22;19359;51.402;6.778;2023-04-06T09:46:46;12.00;1.00
7784;DHT22;19359;51.402;6.778;2023-04-06T09:49:13;11.90;1.00
7784;DHT22;19359;51.402;6.778;2023-04-06T09:51:43;11.60;1.00
7784;DHT22;19359;51.402;6.778;2023-04-06T09:54:15;12.30;1.00
7784;DHT22;19359;51.402;6.778;2023-04-06T09:56:46;12.80;1.00
7784;DHT22;19359;51.402;6.778;2023-04-06T09:59:14;12.40;1.00
7784;DHT22;19359;51.402;6.778;2023-04-06T10:01:46;12.40;1.00
7784;DHT22;19359;51.402;6.778;2023-04-06T10:04:21;12.60;1.00
7784;DHT22;19359;51.402;6.778;2023-04-06T10:06:52;12.20;1.00
7784;DHT22;19359;51.402;6.778;2023-04-06T10:09:23;12.50;1.00
7784;DHT22;19359;51.402;6.778;2023-04-06T10:11:52;12.60;1.00
7784;DHT22;19359;51.402;6.778;2023-04-06T10:14:19;12.80;1.00
7784;DHT22;19359;51.402;6.778;2023-04-06T10:16:48;12.90;1.00
7784;DHT22;19359;51.402;6.778;2023-04-06T10:19:22;12.80;1.00
7784;DHT22;19359;51.402;6.778;2023-04-06T10:21:54;13.00;1.00
7784;DHT22;19359;51.402;6.778;2023-04-06T10:24:22;13.10;1.00
7784;DHT22;19359;51.402;6.778;2023-04-06T10:26:58;13.20;1.00
7784;DHT22;19359;51.402;6.778;2023-04-06T10:29:25;13.20;1.00
7784;DHT22;19359;51.402;6.778;2023-04-06T10:31:52;12.90;1.00
7784;DHT22;19359;51.402;6.778;2023-04-06T10:34:20;13.00;1.00
7784;DHT22;19359;51.402;6.778;2023-04-06T10:36:47;13.10;1.00
7784;DHT22;19359;51.402;6.778;2023-04-06T10:41:43;13.00;1.00
7784;DHT22;19359;51.402;6.778;2023-04-06T10:44:20;13.30;1.00
7784;DHT22;19359;51.402;6.778;2023-04-06T10:46:53;13.20;1.00
7784;DHT22;19359;51.402;6.778;2023-04-06T10:49:20;13.40;1.00
7784;DHT22;19359;51.402;6.778;2023-04-06T10:51:51;13.30;1.00
7784;DHT22;19359;51.402;6.778;2023-04-06T10:54:19;13.60;1.00
7784;DHT22;19359;51.402;6.778;2023-04-06T10:59:20;13.60;1.00
7784;DHT22;19359;51.402;6.778;2023-04-06T11:01:47;13.50;1.00
7784;DHT22;19359;51.402;6.778;2023-04-06T11:04:16;13.40;1.00
7784;DHT22;19359;51.402;6.778;2023-04-06T11:06:46;13.20;1.00
7784;DHT22;19359;51.402;6.778;2023-04-06T11:09:23;13.40;1.00
7784;DHT22;19359;51.402;6.778;2023-04-06T11:11:51;13.30;1.00
7784;DHT22;19359;51.402;6.778;2023-04-06T11:14:19;13.30;1.00
7784;DHT22;19359;51.402;6.778;2023-04-06T11:16:47;13.60;1.00
7784;DHT22;19359;51.402;6.778;2023-04-06T11:19:15;13.60;1.00
7784;DHT22;19359;51.402;6.778;2023-04-06T11:21:43;14.20;1.00
7784;DHT22;19359;51.402;6.778;2023-04-06T11:24:14;13.60;1.00
7784;DHT22;19359;51.402;6.778;2023-04-06T11:26:43;13.40;1.00
7784;DHT22;19359;51.402;6.778;2023-04-06T11:29:10;13.30;1.00
7784;DHT22;19359;51.402;6.778;2023-04-06T11:31:40;13.40;1.00
7784;DHT22;19359;51.402;6.778;2023-04-06T11:34:15;13.30;1.00
7784;DHT22;19359;51.402;6.778;2023-04-06T11:36:43;13.60;1.00
7784;DHT22;19359;51.402;6.778;2023-04-06T11:39:11;13.70;1.00
7784;DHT22;19359;51.402;6.778;2023-04-06T11:41:37;13.50;1.00
7784;DHT22;19359;51.402;6.778;2023-04-06T11:44:05;13.60;1.00
7784;DHT22;19359;51.402;6.778;2023-04-06T11:46:32;13.50;1.00
7784;DHT22;19359;51.402;6.778;2023-04-06T11:51:28;13.40;1.00
7784;DHT22;19359;51.402;6.778;2023-04-06T11:53:55;13.10;1.00
7784;DHT22;19359;51.402;6.778;2023-04-06T11:56:26;13.30;1.00
7784;DHT22;19359;51.402;6.778;2023-04-06T11:58:57;13.20;1.00
7784;DHT22;19359;51.402;6.778;2023-04-06T12:01:25;13.20;1.00
7784;DHT22;19359;51.402;6.778;2023-04-06T12:03:53;13.40;1.00
7784;DHT22;19359;51.402;6.778;2023-04-06T12:06:21;13.30;1.00
7784;DHT22;19359;51.402;6.778;2023-04-06T12:08:48;13.40;1.00
7784;DHT22;19359;51.402;6.778;2023-04-06T12:11:14;13.70;1.00
7784;DHT22;19359;51.402;6.778;2023-04-06T12:16:08;13.40;1.00
7784;DHT22;19359;51.402;6.778;2023-04-06T12:18:35;13.40;1.00
7784;DHT22;19359;51.402;6.778;2023-04-06T12:21:02;13.50;1.00
7784;DHT22;19359;51.402;6.778;2023-04-06T12:23:30;13.60;1.00
7784;DHT22;19359;51.402;6.778;2023-04-06T12:25:56;13.90;1.00
7784;DHT22;19359;51.402;6.778;2023-04-06T12:28:23;14.20;1.00
7784;DHT22;19359;51.402;6.778;2023-04-06T12:30:52;13.60;1.00
7784;DHT22;19359;51.402;6.778;2023-04-06T12:33:19;13.80;1.00
7784;DHT22;19359;51.402;6.778;2023-04-06T12:35:46;13.90;1.00
7784;DHT22;19359;51.402;6.778;2023-04-06T12:38:12;13.90;1.00
7784;DHT22;19359;51.402;6.778;2023-04-06T12:40:40;13.50;1.00
7784;DHT22;19359;51.402;6.778;2023-04-06T12:45:35;13.40;1.00
7784;DHT22;19359;51.402;6.778;2023-04-06T12:48:02;13.30;1.00
7784;DHT22;19359;51.402;6.778;2023-04-06T12:52:56;13.40;1.00
7784;DHT22;19359;51.402;6.778;2023-04-06T12:57:51;12.90;1.00
7784;DHT22;19359;51.402;6.778;2023-04-06T13:00:19;13.10;1.00
7784;DHT22;19359;51.402;6.778;2023-04-06T13:02:46;13.10;1.00
7784;DHT22;19359;51.402;6.778;2023-04-06T13:05:13;13.20;1.00
7784;DHT22;19359;51.402;6.778;2023-04-06T13:07:44;13.20;1.00
7784;DHT22;19359;51.402;6.778;2023-04-06T13:10:11;13.30;1.00
7784;DHT22;19359;51.402;6.778;2023-04-06T13:15:07;13.00;1.00
7784;DHT22;19359;51.402;6.778;2023-04-06T13:17:34;13.00;1.00
7784;DHT22;19359;51.402;6.778;2023-04-06T13:20:01;13.00;1.00
7784;DHT22;19359;51.402;6.778;2023-04-06T13:22:29;13.10;1.00
7784;DHT22;19359;51.402;6.778;2023-04-06T13:24:55;12.80;1.00
7784;DHT22;19359;51.402;6.778;2023-04-06T13:27:22;12.90;1.00
7784;DHT22;19359;51.402;6.778;2023-04-06T13:29:49;12.80;1.00
7784;DHT22;19359;51.402;6.778;2023-04-06T13:32:17;13.10;1.00
7784;DHT22;19359;51.402;6.778;2023-04-06T13:34:44;13.00;1.00
7784;DHT22;19359;51.402;6.778;2023-04-06T13:37:11;13.00;1.00
7784;DHT22;19359;51.402;6.778;2023-04-06T13:39:38;12.70;1.00
7784;DHT22;19359;51.402;6.778;2023-04-06T13:42:05;12.50;1.00
7784;DHT22;19359;51.402;6.778;2023-04-06T13:44:33;12.40;1.00
7784;DHT22;19359;51.402;6.778;2023-04-06T13:46:59;12.40;1.00
7784;DHT22;19359;51.402;6.778;2023-04-06T13:49:27;12.30;1.00
7784;DHT22;19359;51.402;6.778;2023-04-06T13:51:54;12.00;1.00
7784;DHT22;19359;51.402;6.778;2023-04-06T13:54:21;12.10;1.00
7784;DHT22;19359;51.402;6.778;2023-04-06T13:56:48;11.90;1.00
7784;DHT22;19359;51.402;6.778;2023-04-06T14:01:42;11.80;1.00
7784;DHT22;19359;51.402;6.778;2023-04-06T14:04:08;11.80;1.00
7784;DHT22;19359;51.402;6.778;2023-04-06T14:06:37;12.00;1.00
7784;DHT22;19359;51.402;6.778;2023-04-06T14:11:32;11.40;1.00
7784;DHT22;19359;51.402;6.778;2023-04-06T14:13:59;11.50;1.00
7784;DHT22;19359;51.402;6.778;2023-04-06T14:18:53;11.50;1.00
7784;DHT22;19359;51.402;6.778;2023-04-06T14:21:20;11.70;1.00
7784;DHT22;19359;51.402;6.778;2023-04-06T14:23:48;11.60;1.00
7784;DHT22;19359;51.402;6.778;2023-04-06T14:26:15;11.80;1.00
7784;DHT22;19359;51.402;6.778;2023-04-06T14:28:42;11.80;1.00
7784;DHT22;19359;51.402;6.778;2023-04-06T14:31:12;11.40;1.00
7784;DHT22;19359;51.402;6.778;2023-04-06T14:33:40;11.60;1.00
7784;DHT22;19359;51.402;6.778;2023-04-06T14:36:08;11.50;1.00
7784;DHT22;19359;51.402;6.778;2023-04-06T14:41:03;11.50;1.00
7784;DHT22;19359;51.402;6.778;2023-04-06T14:43:30;11.50;1.00
7784;DHT22;19359;51.402;6.778;2023-04-06T14:46:00;11.60;1.00
7784;DHT22;19359;51.402;6.778;2023-04-06T14:48:27;11.40;1.00
7784;DHT22;19359;51.402;6.778;2023-04-06T14:50:54;11.20;1.00
7784;DHT22;19359;51.402;6.778;2023-04-06T14:53:21;11.20;1.00
7784;DHT22;19359;51.402;6.778;2023-04-06T14:55:48;10.80;1.00
7784;DHT22;19359;51.402;6.778;2023-04-06T14:58:18;11.00;1.00
7784;DHT22;19359;51.402;6.778;2023-04-06T15:00:44;11.10;8.50
7784;DHT22;19359;51.402;6.778;2023-04-06T15:03:11;10.60;11.50
7784;DHT22;19359;51.402;6.778;2023-04-06T15:08:05;10.60;20.50
7784;DHT22;19359;51.402;6.778;2023-04-06T15:10:35;10.60;23.40
7784;DHT22;19359;51.402;6.778;2023-04-06T15:13:02;10.40;27.70
7784;DHT22;19359;51.402;6.778;2023-04-06T15:15:30;10.40;29.40
7784;DHT22;19359;51.402;6.778;2023-04-06T15:17:57;10.00;32.90
7784;DHT22;19359;51.402;6.778;2023-04-06T15:20:24;10.20;37.20
7784;DHT22;19359;51.402;6.778;2023-04-06T15:22:51;10.20;46.80
7784;DHT22;19359;51.402;6.778;2023-04-06T15:25:18;10.50;46.00
7784;DHT22;19359;51.402;6.778;2023-04-06T15:27:45;10.10;39.20
7784;DHT22;19359;51.402;6.778;2023-04-06T15:30:12;9.70;50.00
7784;DHT22;19359;51.402;6.778;2023-04-06T15:32:46;10.00;42.00
7784;DHT22;19359;51.402;6.778;2023-04-06T15:35:18;9.90;49.70
7784;DHT22;19359;51.402;6.778;2023-04-06T15:37:45;10.00;53.40
7784;DHT22;19359;51.402;6.778;2023-04-06T15:40:12;10.50;54.00
7784;DHT22;19359;51.402;6.778;2023-04-06T15:42:41;9.90;59.20
7784;DHT22;19359;51.402;6.778;2023-04-06T15:45:08;10.00;66.00
7784;DHT22;19359;51.402;6.778;2023-04-06T15:47:36;9.90;67.50
7784;DHT22;19359;51.402;6.778;2023-04-06T15:50:04;9.80;66.80
7784;DHT22;19359;51.402;6.778;2023-04-06T15:52:31;9.70;64.20
7784;DHT22;19359;51.402;6.778;2023-04-06T15:54:58;9.70;66.50
7784;DHT22;19359;51.402;6.778;2023-04-06T15:57:26;9.60;67.20
7784;DHT22;19359;51.402;6.778;2023-04-06T15:59:52;9.60;57.50
7784;DHT22;19359;51.402;6.778;2023-04-06T16:02:20;9.50;70.90
7784;DHT22;19359;51.402;6.778;2023-04-06T16:04:48;9.20;68.20
7784;DHT22;19359;51.402;6.778;2023-04-06T16:07:16;9.40;75.80
7784;DHT22;19359;51.402;6.778;2023-04-06T16:09:42;9.20;82.00
7784;DHT22;19359;51.402;6.778;2023-04-06T16:12:10;9.00;85.00
7784;DHT22;19359;51.402;6.778;2023-04-06T16:14:36;9.20;88.70
7784;DHT22;19359;51.402;6.778;2023-04-06T16:17:03;9.20;92.90
7784;DHT22;19359;51.402;6.778;2023-04-06T16:19:30;9.20;95.60
7784;DHT22;19359;51.402;6.778;2023-04-06T16:21:57;9.20;97.30
7784;DHT22;19359;51.402;6.778;2023-04-06T16:26:52;9.00;97.90
7784;DHT22;19359;51.402;6.778;2023-04-06T16:31:46;8.90;99.90
7784;DHT22;19359;51.402;6.778;2023-04-06T16:34:13;8.90;99.90
7784;DHT22;19359;51.402;6.778;2023-04-06T16:36:40;8.80;99.90
7784;DHT22;19359;51.402;6.778;2023-04-06T16:39:07;8.80;99.90
7784;DHT22;19359;51.402;6.778;2023-04-06T16:41:36;8.80;99.90
7784;DHT22;19359;51.402;6.778;2023-04-06T16:44:03;8.90;99.90
7784;DHT22;19359;51.402;6.778;2023-04-06T16:48:58;8.70;99.90
7784;DHT22;19359;51.402;6.778;2023-04-06T16:53:52;8.80;99.90
7784;DHT22;19359;51.402;6.778;2023-04-06T16:56:19;8.80;99.90
7784;DHT22;19359;51.402;6.778;2023-04-06T16:58:47;8.70;99.90
7784;DHT22;19359;51.402;6.778;2023-04-06T17:01:18;10.00;99.90
7784;DHT22;19359;51.402;6.778;2023-04-06T17:03:45;8.50;99.90
7784;DHT22;19359;51.402;6.778;2023-04-06T17:06:11;8.50;99.90
7784;DHT22;19359;51.402;6.778;2023-04-06T17:08:38;8.40;99.90
7784;DHT22;19359;51.402;6.778;2023-04-06T17:11:05;8.40;99.90
7784;DHT22;19359;51.402;6.778;2023-04-06T17:16:01;8.30;99.90
7784;DHT22;19359;51.402;6.778;2023-04-06T17:18:28;8.00;99.90
7784;DHT22;19359;51.402;6.778;2023-04-06T17:20:55;8.30;99.90
7784;DHT22;19359;51.402;6.778;2023-04-06T17:23:22;8.30;99.90
7784;DHT22;19359;51.402;6.778;2023-04-06T17:28:16;8.10;99.90
7784;DHT22;19359;51.402;6.778;2023-04-06T17:30:43;8.20;99.90
7784;DHT22;19359;51.402;6.778;2023-04-06T17:33:12;8.30;99.90
7784;DHT22;19359;51.402;6.778;2023-04-06T17:43:02;8.10;99.90
7784;DHT22;19359;51.402;6.778;2023-04-06T17:45:29;8.00;99.90
7784;DHT22;19359;51.402;6.778;2023-04-06T17:47:56;8.10;99.90
7784;DHT22;19359;51.402;6.778;2023-04-06T17:50:24;8.00;99.90
7784;DHT22;19359;51.402;6.778;2023-04-06T17:52:51;8.00;99.90
7784;DHT22;19359;51.402;6.778;2023-04-06T17:55:18;7.70;99.90
7784;DHT22;19359;51.402;6.778;2023-04-06T17:57:46;8.00;99.90
7784;DHT22;19359;51.402;6.778;2023-04-06T18:00:14;8.00;99.90